Time;durP1;ratioP1;P1;durP2;ratioP2;P2;SDS_P1;SDS_P2;PMS_P1;PMS_P2;Temp;Humidity;BMP_temperature;BMP_pressure;BME280_temperature;BME280_humidity;BME280_pressure;Samples;Min_cycle;Max_cycle;Signal;HPM_P1;HPM_P2
2021/12/01 00:00:59;;;;;;;21.62;12.25;;;;;;;;;;4360207;33;20077;-70
2021/12/01 00:03:45;;;;;;;18.73;12.55;;;;;;;;;;4347638;33;20032;-70
2021/12/01 00:06:11;;;;;;;17.85;11.00;;;;;;;;;;4363377;32;20031;-70
2021/12/01 00:09:07;;;;;;;;;;;;;;;;;;;;;
2021/12/01 00:11:53;;;;;;;19.35;8.93;;;;;;;;;;4357833;32;19969;-72
2021/12/01 00:17:29;;;;;;;13.48;6.25;;;;;;;;;;4357286;33;20094;-70
2021/12/01 00:26:04;;;;;;;10.27;6.00;;;;;;;;;;4333702;33;20380;-70
2021/12/01 00:31:56;;;;;;;16.35;6.47;;;;;;;;;;4331057;33;20385;-71
2021/12/01 00:34:32;;;;;;;16.30;6.87;;;;;;;;;;4301505;33;20171;-70
2021/12/01 00:37:17;;;;;;;13.55;6.93;;;;;;;;;;4344193;33;20039;-70
2021/12/01 00:39:45;;;;;;;9.68;6.28;;;;;;;;;;4345399;32;20406;-70
2021/12/01 00:42:11;;;;;;;13.70;6.30;;;;;;;;;;4355068;32;20086;-71
2021/12/01 00:44:47;;;;;;;8.52;6.07;;;;;;;;;;4360330;32;20503;-71
2021/12/01 00:47:51;;;;;;;;;;;;;;;;;;;;;
2021/12/01 00:50:20;;;;;;;12.05;7.37;;;;;;;;;;4359208;32;20053;-71
2021/12/01 00:52:45;;;;;;;10.25;6.07;;;;;;;;;;4359840;32;20120;-70
2021/12/01 00:55:10;;;;;;;;;;;;;;;;;;4359328;32;20546;-71
2021/12/01 00:57:36;;;;;;;9.38;6.55;;;;;;;;;;4359276;32;19965;-71
2021/12/01 01:00:04;;;;;;;;;;;;;;;;;;4360442;32;20614;-71
2021/12/01 01:02:38;;;;;;;;;;;;;;;;;;4359607;32;19942;-71
2021/12/01 01:05:07;;;;;;;11.45;8.55;;;;;;;;;;4347329;33;20009;-71
2021/12/01 01:07:33;;;;;;;13.20;7.03;;;;;;;;;;4360316;32;20053;-70
2021/12/01 01:10:05;;;;;;;;;;;;;;;;;;4348954;33;20369;-71
2021/12/01 01:18:37;;;;;;;;;;;;;;;;;;;;;
2021/12/01 01:21:04;;;;;;;6.15;3.92;;;;;;;;;;4359182;33;20035;-70
2021/12/01 01:23:46;;;;;;;7.45;4.00;;;;;;;;;;4361667;32;20035;-71
2021/12/01 01:26:16;;;;;;;9.95;4.93;;;;;;;;;;4362306;32;20097;-70
2021/12/01 01:28:42;;;;;;;8.98;4.15;;;;;;;;;;4362127;32;20062;-70
2021/12/01 01:31:07;;;;;;;;;;;;;;;;;;4362343;32;20084;-70
2021/12/01 01:33:51;;;;;;;8.93;4.20;;;;;;;;;;4361524;32;19934;-70
2021/12/01 01:36:37;;;;;;;9.25;3.85;;;;;;;;;;4361365;32;20035;-70
2021/12/01 01:39:03;;;;;;;12.73;5.82;;;;;;;;;;4361243;32;20052;-71
2021/12/01 01:41:32;;;;;;;4.57;3.58;;;;;;;;;;4362011;32;20046;-70
2021/12/01 01:44:04;;;;;;;6.15;4.00;;;;;;;;;;4362579;32;20023;-70
2021/12/01 01:46:33;;;;;;;10.27;4.85;;;;;;;;;;4361946;32;20036;-70
2021/12/01 01:49:06;;;;;;;9.82;3.72;;;;;;;;;;4361379;32;20028;-70
2021/12/01 01:51:32;;;;;;;6.90;3.15;;;;;;;;;;4348394;33;20039;-70
2021/12/01 01:53:58;;;;;;;;;;;;;;;;;;4360983;32;20035;-72
2021/12/01 01:56:24;;;;;;;6.07;3.07;;;;;;;;;;4360963;32;20326;-71
2021/12/01 01:58:49;;;;;;;;;;;;;;;;;;4361789;32;20506;-71
2021/12/01 02:07:26;;;;;;;10.82;3.03;;;;;;;;;;4361818;32;20058;-70
2021/12/01 02:09:51;;;;;;;7.57;2.65;;;;;;;;;;4346750;33;20404;-70
2021/12/01 02:12:16;;;;;;;;;;;;;;;;;;4356905;32;20125;-70
2021/12/01 02:14:52;;;;;;;8.05;3.03;;;;;;;;;;4361005;33;19953;-71
2021/12/01 02:17:17;;;;;;;5.90;3.15;;;;;;;;;;4361833;32;20028;-71
2021/12/01 02:19:43;;;;;;;;;;;;;;;;;;4361629;32;20353;-71
2021/12/01 02:22:20;;;;;;;3.53;2.42;;;;;;;;;;4347785;33;19991;-70
2021/12/01 02:24:46;;;;;;;5.80;2.53;;;;;;;;;;4348943;33;20053;-71
2021/12/01 02:27:11;;;;;;;;;;;;;;;;;;4360380;32;20063;-71
2021/12/01 02:29:42;;;;;;;6.65;2.97;;;;;;;;;;4360340;32;20297;-71
2021/12/01 02:32:07;;;;;;;6.57;3.20;;;;;;;;;;4362053;32;20042;-71
2021/12/01 02:34:34;;;;;;;;;;;;;;;;;;4361073;33;20065;-71
2021/12/01 02:36:59;;;;;;;5.78;3.87;;;;;;;;;;4360392;32;19943;-71
2021/12/01 02:39:24;;;;;;;;;;;;;;;;;;4360449;32;20054;-70
2021/12/01 02:41:52;;;;;;;6.43;4.05;;;;;;;;;;4361722;32;19962;-70
2021/12/01 02:44:17;;;;;;;7.93;4.15;;;;;;;;;;4360772;32;20373;-70
2021/12/01 02:46:43;;;;;;;;;;;;;;;;;;4360743;32;20053;-71
2021/12/01 02:49:09;;;;;;;9.18;4.43;;;;;;;;;;4361143;32;19938;-71
2021/12/01 02:51:36;;;;;;;;;;;;;;;;;;4360944;32;20090;-70
2021/12/01 02:54:02;;;;;;;7.70;4.45;;;;;;;;;;4360982;32;20017;-71
2021/12/01 02:56:27;;;;;;;;;;;;;;;;;;4360553;32;20038;-71
2021/12/01 02:58:52;;;;;;;8.23;4.60;;;;;;;;;;4359038;32;20024;-70
2021/12/01 03:01:17;;;;;;;;;;;;;;;;;;4360026;32;20128;-70
2021/12/01 03:03:46;;;;;;;8.35;4.95;;;;;;;;;;4360828;32;19965;-70
2021/12/01 03:06:12;;;;;;;7.50;4.70;;;;;;;;;;4359238;32;20483;-70
2021/12/01 03:08:37;;;;;;;;;;;;;;;;;;4360844;32;20023;-71
2021/12/01 03:11:02;;;;;;;8.88;4.95;;;;;;;;;;4360487;32;19942;-71
2021/12/01 03:13:28;;;;;;;;;;;;;;;;;;4361333;32;20027;-70
2021/12/01 03:15:54;;;;;;;5.47;4.57;;;;;;;;;;4359923;32;20292;-71
2021/12/01 03:18:47;;;;;;;7.28;4.87;;;;;;;;;;4360122;32;20039;-72
2021/12/01 03:21:13;;;;;;;6.20;4.68;;;;;;;;;;4361171;32;20081;-72
2021/12/01 03:23:38;;;;;;;;;;;;;;;;;;4360236;32;20035;-71
2021/12/01 03:26:40;;;;;;;7.95;4.78;;;;;;;;;;4360075;32;19934;-71
2021/12/01 03:32:28;;;;;;;8.05;5.30;;;;;;;;;;4313864;33;20055;-70
2021/12/01 03:38:26;;;;;;;6.22;4.80;;;;;;;;;;4284625;33;20120;-70
2021/12/01 03:40:52;;;;;;;7.35;5.12;;;;;;;;;;4279869;33;20068;-70
2021/12/01 03:43:17;;;;;;;;;;;;;;;;;;4326114;33;20062;-70
2021/12/01 03:45:43;;;;;;;7.70;4.62;;;;;;;;;;4353713;33;19972;-70
2021/12/01 03:48:23;;;;;;;;;;;;;;;;;;4360572;33;20193;-71
2021/12/01 03:53:57;;;;;;;8.75;4.95;;;;;;;;;;4360059;33;20082;-70
2021/12/01 03:56:22;;;;;;;7.97;5.32;;;;;;;;;;4359388;33;20082;-72
2021/12/01 03:59:08;;;;;;;;;;;;;;;;;;4353710;33;20385;-71
2021/12/01 04:01:40;;;;;;;6.03;5.20;;;;;;;;;;4360120;33;19969;-70
2021/12/01 04:04:06;;;;;;;8.05;4.62;;;;;;;;;;4356908;33;20053;-71
2021/12/01 04:06:32;;;;;;;;;;;;;;;;;;4361020;33;20055;-70
2021/12/01 04:09:19;;;;;;;5.85;4.70;;;;;;;;;;4359816;33;19935;-70
2021/12/01 04:11:55;;;;;;;14.95;8.43;;;;;;;;;;4360250;33;20035;-70
2021/12/01 04:14:23;;;;;;;13.13;8.32;;;;;;;;;;4360935;33;20027;-70
2021/12/01 04:16:49;;;;;;;20.83;12.20;;;;;;;;;;4360010;33;20035;-71
2021/12/01 04:19:14;;;;;;;;;;;;;;;;;;4360724;33;20031;-71
2021/12/01 04:21:39;;;;;;;16.80;10.43;;;;;;;;;;4360578;33;19934;-70
2021/12/01 04:24:04;;;;;;;;;;;;;;;;;;4359991;33;20135;-71
2021/12/01 04:26:32;;;;;;;14.34;11.80;;;;;;;;;;4346314;33;19953;-70
2021/12/01 04:28:58;;;;;;;18.02;12.10;;;;;;;;;;4360057;33;20389;-71
2021/12/01 04:31:23;;;;;;;;;;;;;;;;;;4358908;33;20046;-70
2021/12/01 04:33:48;;;;;;;19.95;13.45;;;;;;;;;;4359898;33;19943;-71
2021/12/01 04:36:14;;;;;;;;;;;;;;;;;;4360702;33;20078;-71
2021/12/01 04:38:43;;;;;;;18.45;13.40;;;;;;;;;;4358725;33;19943;-68
2021/12/01 04:41:09;;;;;;;19.73;13.00;;;;;;;;;;4360035;33;20063;-70
2021/12/01 04:43:37;;;;;;;21.55;14.25;;;;;;;;;;4359721;33;20111;-70
2021/12/01 04:51:51;;;;;;;22.35;12.20;;;;;;;;;;4257753;33;20065;-71
2021/12/01 04:54:36;;;;;;;17.85;13.13;;;;;;;;;;4299763;33;20075;-70
2021/12/01 05:00:39;;;;;;;;;;;;;;;;;;;;;
2021/12/01 05:03:05;;;;;;;27.67;16.67;;;;;;;;;;4350146;33;20043;-71
2021/12/01 05:15:08;;;;;;;;;;;;;;;;;;;;;
2021/12/01 05:17:55;;;;;;;24.73;16.02;;;;;;;;;;4273593;33;20033;-71
2021/12/01 05:23:50;;;;;;;22.58;13.93;;;;;;;;;;4301408;33;20045;-71
2021/12/01 05:26:17;;;;;;;18.50;13.05;;;;;;;;;;4301313;33;20036;-71
2021/12/01 05:28:51;;;;;;;22.70;14.63;;;;;;;;;;4324995;33;20089;-70
2021/12/01 05:31:42;;;;;;;20.15;14.87;;;;;;;;;;4347996;33;20046;-70
2021/12/01 05:34:35;;;;;;;14.93;11.50;;;;;;;;;;4348199;32;20024;-71
2021/12/01 05:37:01;;;;;;;18.50;13.82;;;;;;;;;;4361299;33;20065;-71
2021/12/01 05:39:26;;;;;;;;;;;;;;;;;;4358458;32;20102;-70
2021/12/01 05:41:52;;;;;;;21.37;12.15;;;;;;;;;;4361403;32;19973;-71
2021/12/01 05:44:17;;;;;;;;;;;;;;;;;;4361592;32;20392;-70
2021/12/01 05:46:48;;;;;;;16.20;10.80;;;;;;;;;;4360426;32;20032;-70
2021/12/01 05:49:13;;;;;;;13.85;9.77;;;;;;;;;;4363178;32;20136;-71
2021/12/01 05:54:32;;;;;;;14.35;9.32;;;;;;;;;;4316163;33;19942;-70
2021/12/01 05:57:07;;;;;;;9.75;7.20;;;;;;;;;;4357288;32;20031;-70
2021/12/01 06:00:04;;;;;;;8.85;6.78;;;;;;;;;;4361304;32;20082;-70
2021/12/01 06:02:29;;;;;;;8.57;7.28;;;;;;;;;;4357589;32;20022;-70
2021/12/01 06:04:55;;;;;;;;;;;;;;;;;;4361726;33;20372;-70
2021/12/01 06:07:20;;;;;;;9.40;6.15;;;;;;;;;;4361993;32;20288;-70
2021/12/01 06:09:48;;;;;;;;;;;;;;;;;;4362850;32;20410;-70
2021/12/01 06:12:14;;;;;;;6.85;5.37;;;;;;;;;;4362615;32;19961;-70
2021/12/01 06:14:42;;;;;;;;;;;;;;;;;;4363100;32;20085;-70
2021/12/01 06:17:11;;;;;;;6.53;5.35;;;;;;;;;;4361785;32;20355;-70
2021/12/01 06:19:41;;;;;;;9.43;5.95;;;;;;;;;;4360761;32;20044;-70
2021/12/01 06:22:15;;;;;;;6.90;5.78;;;;;;;;;;4361698;32;20077;-70
2021/12/01 06:24:41;;;;;;;8.70;5.97;;;;;;;;;;4348059;33;20077;-70
2021/12/01 06:27:12;;;;;;;;;;;;;;;;;;4361667;32;20028;-71
2021/12/01 06:29:37;;;;;;;7.60;5.50;;;;;;;;;;4347433;33;19930;-71
2021/12/01 06:32:02;;;;;;;;;;;;;;;;;;4360764;32;20081;-72
2021/12/01 06:40:17;;;;;;;7.80;5.78;;;;;;;;;;4374195;32;20088;-71
2021/12/01 06:42:43;;;;;;;7.72;5.72;;;;;;;;;;4375905;32;20070;-70
2021/12/01 06:45:17;;;;;;;;;;;;;;;;;;4365970;32;20101;-70
2021/12/01 06:47:43;;;;;;;9.02;6.22;;;;;;;;;;4359138;32;19970;-70
2021/12/01 06:50:08;;;;;;;;;;;;;;;;;;4357301;32;20066;-71
2021/12/01 06:52:36;;;;;;;8.32;5.95;;;;;;;;;;4349542;32;19950;-71
2021/12/01 06:55:13;;;;;;;6.45;4.45;;;;;;;;;;4358210;32;20079;-71
2021/12/01 06:57:39;;;;;;;9.50;5.90;;;;;;;;;;4332310;33;20361;-71
2021/12/01 07:00:04;;;;;;;;;;;;;;;;;;4346849;33;20032;-71
2021/12/01 07:02:33;;;;;;;9.43;4.87;;;;;;;;;;4345185;33;19942;-70
2021/12/01 07:04:58;;;;;;;6.78;4.35;;;;;;;;;;4332407;33;20039;-70
2021/12/01 07:07:23;;;;;;;;;;;;;;;;;;4360658;32;20343;-71
2021/12/01 07:09:50;;;;;;;6.03;3.78;;;;;;;;;;4360537;32;19954;-71
2021/12/01 07:12:16;;;;;;;9.77;3.67;;;;;;;;;;4347375;32;20373;-71
2021/12/01 07:14:41;;;;;;;;;;;;;;;;;;4359991;33;20110;-70
2021/12/01 07:17:07;;;;;;;11.63;4.72;;;;;;;;;;4360327;32;19948;-70
2021/12/01 07:19:32;;;;;;;;;;;;;;;;;;4360163;32;20074;-70
2021/12/01 07:21:57;;;;;;;11.10;4.93;;;;;;;;;;4360022;32;19949;-70
2021/12/01 07:24:22;;;;;;;;;;;;;;;;;;4360909;32;20119;-70
2021/12/01 07:26:50;;;;;;;12.32;6.50;;;;;;;;;;4360506;32;19942;-70
2021/12/01 07:29:18;;;;;;;10.88;4.75;;;;;;;;;;4357261;32;20155;-70
2021/12/01 07:31:48;;;;;;;13.38;6.25;;;;;;;;;;4358734;32;20094;-70
2021/12/01 07:34:13;;;;;;;10.32;4.72;;;;;;;;;;4358756;32;20105;-71
2021/12/01 07:36:39;;;;;;;;;;;;;;;;;;4360993;32;20441;-70
2021/12/01 07:39:04;;;;;;;9.02;5.03;;;;;;;;;;4359857;33;19950;-70
2021/12/01 07:41:32;;;;;;;;;;;;;;;;;;4360690;33;20496;-70
2021/12/01 07:44:04;;;;;;;16.25;5.78;;;;;;;;;;4360178;33;19942;-70
2021/12/01 07:47:05;;;;;;;16.73;5.78;;;;;;;;;;4361264;33;20077;-70
2021/12/01 07:49:30;;;;;;;10.45;4.62;;;;;;;;;;4353913;33;20035;-70
2021/12/01 07:51:55;;;;;;;;;;;;;;;;;;4360138;33;20046;-71
2021/12/01 07:54:21;;;;;;;16.62;5.10;;;;;;;;;;4361427;33;20374;-70
2021/12/01 07:56:46;;;;;;;;;;;;;;;;;;4359308;33;20096;-70
2021/12/01 07:59:15;;;;;;;10.90;4.15;;;;;;;;;;4359534;33;20320;-72
2021/12/01 08:01:40;;;;;;;11.90;3.67;;;;;;;;;;4358898;33;20053;-70
2021/12/01 08:04:06;;;;;;;;;;;;;;;;;;4359923;33;20089;-70
2021/12/01 08:06:58;;;;;;;13.98;4.28;;;;;;;;;;4361464;33;20015;-70
2021/12/01 08:09:24;;;;;;;12.45;2.95;;;;;;;;;;4357903;33;20116;-70
2021/12/01 08:11:55;;;;;;;13.85;3.05;;;;;;;;;;4360091;33;20049;-70
2021/12/01 08:14:21;;;;;;;12.43;2.62;;;;;;;;;;4346784;33;20075;-70
2021/12/01 08:19:37;;;;;;;10.13;3.05;;;;;;;;;;4360167;33;20339;-70
2021/12/01 08:22:03;;;;;;;11.80;2.85;;;;;;;;;;4359580;33;20446;-71
2021/12/01 08:24:32;;;;;;;10.57;2.75;;;;;;;;;;4357670;32;20082;-70
2021/12/01 08:26:57;;;;;;;9.98;2.22;;;;;;;;;;4360805;32;20438;-70
2021/12/01 08:29:22;;;;;;;;;;;;;;;;;;4362594;32;20019;-71
2021/12/01 08:31:53;;;;;;;11.85;2.85;;;;;;;;;;4362205;32;19948;-70
2021/12/01 08:34:19;;;;;;;11.05;2.42;;;;;;;;;;4362646;32;20031;-70
2021/12/01 08:36:46;;;;;;;;;;;;;;;;;;4362726;32;20027;-71
2021/12/01 08:39:18;;;;;;;13.77;2.12;;;;;;;;;;4360522;32;20027;-71
2021/12/01 08:44:48;;;;;;;11.23;2.20;;;;;;;;;;4348061;33;20061;-71
2021/12/01 08:47:35;;;;;;;18.27;3.10;;;;;;;;;;4361459;33;20388;-71
2021/12/01 08:50:24;;;;;;;10.95;2.87;;;;;;;;;;4357999;33;20032;-70
2021/12/01 08:55:41;;;;;;;14.45;2.22;;;;;;;;;;4361270;32;20089;-71
2021/12/01 08:58:13;;;;;;;10.13;2.05;;;;;;;;;;4362018;32;20365;-70
2021/12/01 09:04:36;;;;;;;10.75;2.72;;;;;;;;;;4303936;33;20092;-72
2021/12/01 09:07:01;;;;;;;9.63;1.70;;;;;;;;;;4292093;33;20415;-71
2021/12/01 09:09:26;;;;;;;;;;;;;;;;;;4342615;33;20067;-70
2021/12/01 09:11:52;;;;;;;10.98;1.73;;;;;;;;;;4362246;32;19970;-69
2021/12/01 09:14:17;;;;;;;;;;;;;;;;;;4362487;33;20031;-70
2021/12/01 09:16:48;;;;;;;3.20;1.17;;;;;;;;;;4362339;32;19957;-70
2021/12/01 09:19:13;;;;;;;8.48;2.35;;;;;;;;;;4357315;32;20077;-70
2021/12/01 09:21:38;;;;;;;;;;;;;;;;;;4377015;32;20116;-69
2021/12/01 09:24:04;;;;;;;11.27;1.85;;;;;;;;;;4367185;32;19938;-70
2021/12/01 09:26:29;;;;;;;;;;;;;;;;;;4361024;32;20189;-70
2021/12/01 09:28:57;;;;;;;9.75;1.85;;;;;;;;;;4355203;32;19942;-70
2021/12/01 09:31:25;;;;;;;7.50;1.80;;;;;;;;;;4357373;32;20588;-70
2021/12/01 09:33:51;;;;;;;6.07;1.60;;;;;;;;;;4361038;32;20457;-69
2021/12/01 09:36:16;;;;;;;;;;;;;;;;;;4361341;32;20081;-72
2021/12/01 09:39:04;;;;;;;12.94;2.84;;;;;;;;;;4361480;32;20045;-71
2021/12/01 09:41:32;;;;;;;6.97;1.85;;;;;;;;;;4362213;32;20032;-71
2021/12/01 09:43:59;;;;;;;12.93;2.72;;;;;;;;;;4362240;32;20053;-70
2021/12/01 09:46:29;;;;;;;15.10;2.47;;;;;;;;;;4361466;33;20097;-71
2021/12/01 09:49:15;;;;;;;10.15;2.30;;;;;;;;;;4361446;33;20062;-70
2021/12/01 09:51:43;;;;;;;11.57;2.53;;;;;;;;;;4361522;32;20049;-70
2021/12/01 09:54:08;;;;;;;8.73;2.17;;;;;;;;;;4349144;33;20085;-71
2021/12/01 09:56:33;;;;;;;;;;;;;;;;;;4362398;32;20039;-70
2021/12/01 09:58:59;;;;;;;12.40;2.53;;;;;;;;;;4361594;33;19957;-70
2021/12/01 10:01:24;;;;;;;;;;;;;;;;;;4361383;32;20027;-70
2021/12/01 10:03:51;;;;;;;11.07;2.90;;;;;;;;;;4361620;32;19994;-71
2021/12/01 10:06:21;;;;;;;11.30;2.40;;;;;;;;;;4361093;32;20191;-71
2021/12/01 10:09:14;;;;;;;12.63;3.12;;;;;;;;;;4360880;32;20028;-71
2021/12/01 10:12:18;;;;;;;12.60;2.45;;;;;;;;;;4361205;33;20428;-71
2021/12/01 10:14:53;;;;;;;16.75;2.90;;;;;;;;;;4358829;32;20038;-72
2021/12/01 10:20:46;;;;;;;15.80;1.80;;;;;;;;;;4357730;32;20162;-70
2021/12/01 10:23:39;;;;;;;17.12;2.15;;;;;;;;;;4314197;33;20075;-71
2021/12/01 10:35:56;;;;;;;12.32;2.90;;;;;;;;;;4257674;33;20068;-71
2021/12/01 10:38:21;;;;;;;;;;;;;;;;;;4251318;33;20046;-71
2021/12/01 10:41:28;;;;;;;;;;;;;;;;;;;;;
2021/12/01 10:43:54;;;;;;;12.90;2.95;;;;;;;;;;4253993;33;20033;-70
2021/12/01 10:46:20;;;;;;;;;;;;;;;;;;4271787;33;20080;-71
2021/12/01 10:49:12;;;;;;;;;;;;;;;;;;;;;
2021/12/01 10:51:53;;;;;;;14.85;3.50;;;;;;;;;;4285334;33;20432;-71
2021/12/01 10:54:24;;;;;;;14.98;2.50;;;;;;;;;;4286048;33;20131;-70
2021/12/01 10:57:17;;;;;;;15.27;3.33;;;;;;;;;;4285759;33;20092;-70
2021/12/01 10:59:46;;;;;;;12.80;2.90;;;;;;;;;;4319163;33;20082;-70
2021/12/01 11:02:47;;;;;;;10.35;2.37;;;;;;;;;;4359271;32;20028;-70
2021/12/01 11:05:29;;;;;;;13.32;2.58;;;;;;;;;;4329925;33;20043;-70
2021/12/01 11:08:25;;;;;;;;;;;;;;;;;;;;;
2021/12/01 11:17:19;;;;;;;7.68;2.30;;;;;;;;;;4314336;33;20398;-71
2021/12/01 11:19:45;;;;;;;12.27;2.50;;;;;;;;;;4289826;33;20092;-71
2021/12/01 11:22:20;;;;;;;;;;;;;;;;;;;;;
2021/12/01 11:24:46;;;;;;;11.70;2.15;;;;;;;;;;4357473;33;20324;-69
2021/12/01 11:27:11;;;;;;;;;;;;;;;;;;4347555;33;20070;-70
2021/12/01 11:29:36;;;;;;;11.07;3.08;;;;;;;;;;4360583;32;19952;-70
2021/12/01 11:32:02;;;;;;;;;;;;;;;;;;4361094;32;20178;-70
2021/12/01 11:34:32;;;;;;;16.27;2.97;;;;;;;;;;4358948;33;20325;-70
2021/12/01 11:37:01;;;;;;;14.73;2.67;;;;;;;;;;4361618;32;20028;-70
2021/12/01 11:39:30;;;;;;;12.10;2.00;;;;;;;;;;4353237;32;20409;-69
2021/12/01 11:41:55;;;;;;;11.55;2.20;;;;;;;;;;4359144;33;20043;-70
2021/12/01 11:44:21;;;;;;;;;;;;;;;;;;4360457;33;20090;-70
2021/12/01 11:46:50;;;;;;;11.52;2.55;;;;;;;;;;4360172;33;19976;-70
2021/12/01 11:49:40;;;;;;;14.77;2.85;;;;;;;;;;4360268;33;20061;-70
2021/12/01 11:52:08;;;;;;;10.77;2.80;;;;;;;;;;4361461;33;20027;-70
2021/12/01 11:54:41;;;;;;;14.18;3.40;;;;;;;;;;4360516;33;20085;-69
2021/12/01 11:57:09;;;;;;;15.30;2.58;;;;;;;;;;4359791;33;20031;-70
2021/12/01 11:59:41;;;;;;;14.87;2.22;;;;;;;;;;4361650;32;20061;-70
2021/12/01 12:02:18;;;;;;;11.80;2.15;;;;;;;;;;4364043;32;20081;-70
2021/12/01 12:04:46;;;;;;;14.05;2.72;;;;;;;;;;4362311;32;20034;-70
2021/12/01 12:07:29;;;;;;;10.05;2.65;;;;;;;;;;4362860;32;20028;-71
2021/12/01 12:10:16;;;;;;;12.10;3.25;;;;;;;;;;4363603;32;20058;-70
2021/12/01 12:12:46;;;;;;;8.38;2.00;;;;;;;;;;4362788;32;20089;-70
2021/12/01 12:15:45;;;;;;;9.88;2.03;;;;;;;;;;4363450;32;20057;-70
2021/12/01 12:18:33;;;;;;;11.95;1.87;;;;;;;;;;4360407;32;20031;-70
2021/12/01 12:21:12;;;;;;;5.72;1.85;;;;;;;;;;4362324;32;20032;-70
2021/12/01 12:23:38;;;;;;;6.43;1.50;;;;;;;;;;4356887;32;20039;-70
2021/12/01 12:26:04;;;;;;;;;;;;;;;;;;4357615;32;20031;-70
2021/12/01 12:28:56;;;;;;;7.68;1.52;;;;;;;;;;4362390;32;19949;-71
2021/12/01 12:31:26;;;;;;;5.00;1.75;;;;;;;;;;4343616;33;20040;-70
2021/12/01 12:34:18;;;;;;;7.50;1.55;;;;;;;;;;4362995;32;20043;-70
2021/12/01 12:36:53;;;;;;;12.60;2.15;;;;;;;;;;4360408;32;20055;-70
2021/12/01 12:39:29;;;;;;;9.30;2.20;;;;;;;;;;4362531;32;20050;-69
2021/12/01 12:41:54;;;;;;;11.55;2.40;;;;;;;;;;4348730;33;20070;-70
2021/12/01 12:44:20;;;;;;;;;;;;;;;;;;4362641;32;20410;-71
2021/12/01 12:49:50;;;;;;;11.77;2.83;;;;;;;;;;4359380;33;20046;-70
2021/12/01 12:55:37;;;;;;;13.75;2.80;;;;;;;;;;4344811;33;20087;-69
2021/12/01 12:58:09;;;;;;;15.57;2.62;;;;;;;;;;4363089;32;20063;-70
2021/12/01 13:00:45;;;;;;;10.75;2.80;;;;;;;;;;4362532;32;20027;-70
2021/12/01 13:03:30;;;;;;;13.77;2.25;;;;;;;;;;4362551;32;20427;-70
2021/12/01 13:05:57;;;;;;;16.65;2.83;;;;;;;;;;4362062;32;20073;-70
2021/12/01 13:08:35;;;;;;;14.10;2.85;;;;;;;;;;4362355;32;20138;-70
2021/12/01 13:11:03;;;;;;;11.30;2.80;;;;;;;;;;4362266;32;20027;-70
2021/12/01 13:13:35;;;;;;;15.57;3.17;;;;;;;;;;4362724;32;20057;-71
2021/12/01 13:16:01;;;;;;;9.45;2.85;;;;;;;;;;4362280;32;20219;-71
2021/12/01 13:18:27;;;;;;;;;;;;;;;;;;4362410;33;20051;-70
2021/12/01 13:20:54;;;;;;;11.65;2.85;;;;;;;;;;4361887;32;20025;-70
2021/12/01 13:23:26;;;;;;;10.57;2.60;;;;;;;;;;4361702;32;20047;-70
2021/12/01 13:25:56;;;;;;;17.73;3.55;;;;;;;;;;4361488;32;20057;-70
2021/12/01 13:28:30;;;;;;;12.68;3.58;;;;;;;;;;4357273;32;20039;-71
2021/12/01 13:30:58;;;;;;;18.02;3.00;;;;;;;;;;4360190;32;20104;-70
2021/12/01 13:33:23;;;;;;;15.80;2.90;;;;;;;;;;4361176;32;20047;-70
2021/12/01 13:35:48;;;;;;;;;;;;;;;;;;4360625;32;20081;-70
2021/12/01 13:38:49;;;;;;;13.07;2.60;;;;;;;;;;4361356;32;20347;-70
2021/12/01 13:41:16;;;;;;;15.90;4.00;;;;;;;;;;4315483;33;20129;-70
2021/12/01 13:43:42;;;;;;;20.25;3.65;;;;;;;;;;4347640;33;20035;-70
2021/12/01 13:46:10;;;;;;;15.75;3.20;;;;;;;;;;4360899;32;20031;-70
2021/12/01 13:48:36;;;;;;;19.98;3.92;;;;;;;;;;4361790;32;20116;-70
2021/12/01 13:51:01;;;;;;;;;;;;;;;;;;4362183;32;20028;-70
2021/12/01 13:53:27;;;;;;;15.68;3.92;;;;;;;;;;4361815;32;19994;-70
2021/12/01 13:55:52;;;;;;;;;;;;;;;;;;4362090;32;20063;-70
2021/12/01 13:58:19;;;;;;;13.15;3.12;;;;;;;;;;4357822;33;19969;-69
2021/12/01 14:00:47;;;;;;;14.25;3.15;;;;;;;;;;4346763;33;20212;-70
2021/12/01 14:03:14;;;;;;;12.18;3.08;;;;;;;;;;4346698;33;20113;-70
2021/12/01 14:05:41;;;;;;;18.80;3.33;;;;;;;;;;4347201;33;20101;-70
2021/12/01 14:08:09;;;;;;;11.90;3.00;;;;;;;;;;4346461;33;20028;-70
2021/12/01 14:10:36;;;;;;;15.43;4.15;;;;;;;;;;4346788;33;20066;-70
2021/12/01 14:13:05;;;;;;;10.02;2.70;;;;;;;;;;4334014;33;20082;-70
2021/12/01 14:15:37;;;;;;;7.60;1.80;;;;;;;;;;4347427;33;20032;-70
2021/12/01 14:18:03;;;;;;;10.80;2.70;;;;;;;;;;4338913;33;20130;-72
2021/12/01 14:20:29;;;;;;;;;;;;;;;;;;4360511;32;20022;-70
2021/12/01 14:22:55;;;;;;;17.08;2.65;;;;;;;;;;4360442;32;20283;-70
2021/12/01 14:25:24;;;;;;;16.60;3.40;;;;;;;;;;4361148;32;20031;-70
2021/12/01 14:28:08;;;;;;;18.37;3.92;;;;;;;;;;4350585;32;20081;-70
2021/12/01 14:30:34;;;;;;;13.25;1.95;;;;;;;;;;4344839;33;20063;-70
2021/12/01 14:32:59;;;;;;;;;;;;;;;;;;4346192;33;20098;-70
2021/12/01 14:35:35;;;;;;;15.63;2.85;;;;;;;;;;4346220;33;19948;-70
2021/12/01 14:38:00;;;;;;;10.68;1.77;;;;;;;;;;4347502;32;20455;-69
2021/12/01 14:40:28;;;;;;;;;;;;;;;;;;4359884;32;20074;-70
2021/12/01 14:42:55;;;;;;;12.35;2.70;;;;;;;;;;4360414;32;19946;-70
2021/12/01 14:45:41;;;;;;;15.15;2.28;;;;;;;;;;4354809;32;20089;-70
2021/12/01 14:48:35;;;;;;;13.62;2.00;;;;;;;;;;4349222;33;20081;-70
2021/12/01 14:51:09;;;;;;;10.15;2.12;;;;;;;;;;4351277;33;20093;-69
2021/12/01 14:54:03;;;;;;;16.10;3.28;;;;;;;;;;4360165;32;20388;-69
2021/12/01 14:56:28;;;;;;;10.23;2.20;;;;;;;;;;4370145;32;20063;-68
2021/12/01 14:58:57;;;;;;;;;;;;;;;;;;4365535;32;20385;-70
2021/12/01 15:01:23;;;;;;;16.92;4.25;;;;;;;;;;4345875;33;19966;-70
2021/12/01 15:03:48;;;;;;;;;;;;;;;;;;4353818;33;20401;-70
2021/12/01 15:06:49;;;;;;;15.77;3.75;;;;;;;;;;4360240;32;20226;-71
2021/12/01 15:09:23;;;;;;;13.32;2.87;;;;;;;;;;4359197;32;20031;-70
2021/12/01 15:11:50;;;;;;;20.55;3.28;;;;;;;;;;4361766;32;20035;-70
2021/12/01 15:14:28;;;;;;;15.15;2.92;;;;;;;;;;4360593;32;20035;-70
2021/12/01 15:16:54;;;;;;;14.35;3.15;;;;;;;;;;4362044;32;20031;-70
2021/12/01 15:19:23;;;;;;;;;;;;;;;;;;4361380;32;20035;-70
2021/12/01 15:22:20;;;;;;;;;;;;;;;;;;;;;
2021/12/01 15:24:47;;;;;;;19.52;3.10;;;;;;;;;;4360230;32;20047;-71
2021/12/01 15:27:39;;;;;;;14.45;3.55;;;;;;;;;;4360338;32;20075;-71
2021/12/01 15:30:23;;;;;;;28.83;3.83;;;;;;;;;;4354487;33;20031;-71
2021/12/01 15:32:48;;;;;;;12.95;2.83;;;;;;;;;;4346102;33;20110;-71
2021/12/01 15:38:13;;;;;;;14.00;3.37;;;;;;;;;;4360630;32;19929;-71
2021/12/01 15:40:38;;;;;;;18.25;4.68;;;;;;;;;;4359359;32;20048;-71
2021/12/01 15:43:04;;;;;;;;;;;;;;;;;;4360696;33;20069;-71
2021/12/01 15:45:30;;;;;;;15.95;2.95;;;;;;;;;;4360174;33;19938;-70
2021/12/01 15:47:55;;;;;;;14.60;3.28;;;;;;;;;;4360817;33;20093;-71
2021/12/01 15:50:27;;;;;;;;;;;;;;;;;;4345526;33;20039;-70
2021/12/01 15:58:55;;;;;;;9.25;2.25;;;;;;;;;;4286838;33;20032;-70
2021/12/01 16:01:41;;;;;;;;;;;;;;;;;;4315572;33;20129;-70
2021/12/01 16:04:05;;;;;;;9.32;2.17;;;;;;;;;;4360191;33;19939;-70
2021/12/01 16:06:31;;;;;;;;;;;;;;;;;;4346808;33;20058;-70
2021/12/01 16:08:56;;;;;;;8.30;1.67;;;;;;;;;;4360130;33;20288;-71
2021/12/01 16:11:21;;;;;;;;;;;;;;;;;;4360545;33;20128;-71
2021/12/01 16:13:51;;;;;;;15.30;2.85;;;;;;;;;;4360543;33;19961;-70
2021/12/01 16:16:49;;;;;;;19.45;2.97;;;;;;;;;;4361669;33;20093;-70
2021/12/01 16:22:17;;;;;;;18.90;3.60;;;;;;;;;;4360263;33;20006;-70
2021/12/01 16:24:42;;;;;;;12.23;2.25;;;;;;;;;;4360267;33;20113;-70
2021/12/01 16:30:01;;;;;;;11.93;2.22;;;;;;;;;;4352060;33;19927;-70
2021/12/01 16:32:30;;;;;;;9.43;2.00;;;;;;;;;;4361691;33;20061;-70
2021/12/01 16:34:58;;;;;;;4.90;2.20;;;;;;;;;;4346350;33;20054;-71
2021/12/01 16:37:23;;;;;;;10.68;2.35;;;;;;;;;;4360242;33;20035;-71
2021/12/01 16:39:49;;;;;;;;;;;;;;;;;;4346199;32;20422;-70
2021/12/01 16:42:17;;;;;;;10.57;2.92;;;;;;;;;;4359895;33;19985;-70
2021/12/01 16:45:02;;;;;;;;;;;;;;;;;;;;;
2021/12/01 16:47:53;;;;;;;;;;;;;;;;;;;;;
2021/12/01 16:50:20;;;;;;;12.27;2.62;;;;;;;;;;4350944;33;20035;-70
2021/12/01 16:52:46;;;;;;;;;;;;;;;;;;4362807;33;20047;-70
2021/12/01 16:58:15;;;;;;;13.95;2.62;;;;;;;;;;4316354;33;20078;-71
2021/12/01 17:00:43;;;;;;;;;;;;;;;;;;4360784;33;20414;-71
2021/12/01 17:03:20;;;;;;;12.55;3.00;;;;;;;;;;4363200;32;19965;-71
2021/12/01 17:05:48;;;;;;;15.00;2.72;;;;;;;;;;4363366;32;20039;-70
2021/12/01 17:08:58;;;;;;;12.93;2.85;;;;;;;;;;4362605;32;20063;-70
2021/12/01 17:11:33;;;;;;;14.87;2.87;;;;;;;;;;4351944;33;20063;-70
2021/12/01 17:17:32;;;;;;;10.35;2.50;;;;;;;;;;4360046;32;20061;-70
2021/12/01 17:23:00;;;;;;;12.52;2.65;;;;;;;;;;4346354;33;20061;-70
2021/12/01 17:25:28;;;;;;;12.70;3.08;;;;;;;;;;4361778;32;20035;-69
2021/12/01 17:28:15;;;;;;;12.30;2.70;;;;;;;;;;4362624;32;20089;-70
2021/12/01 17:33:25;;;;;;;19.83;3.12;;;;;;;;;;4363209;32;19942;-70
2021/12/01 17:35:53;;;;;;;;;;;;;;;;;;4362138;32;20027;-70
2021/12/01 17:41:14;;;;;;;6.20;1.95;;;;;;;;;;4339750;32;19938;-71
2021/12/01 17:49:55;;;;;;;12.90;2.67;;;;;;;;;;4361374;32;20483;-69
2021/12/01 17:55:40;;;;;;;12.37;3.28;;;;;;;;;;4307361;33;20099;-71
2021/12/01 18:04:40;;;;;;;10.95;2.42;;;;;;;;;;4286621;33;20060;-70